Airfield :
LOGIN :

Register | Disclaimer

   EN    FR    IT 

 










Legend :    VFR   Marginal VFR   IFR   Intensive IFR   Very Intensive IFR
Visi :
Ceiling :
>= 8 km
>= 3000ft
5 to 8 km
1000 to 3000 ft
1500m to 5 km
500 to 1000 ft
800 to 1500m
200 to 500 ft
< 800m
< 200 ft
Symbols :   Thunderstorms  Fog  Heavy snow  Heavy precipitations  Wind > 20 kt
SIGMETs :     Misc.  Thunderstorms  Icing  Turbulence  Mountain Waves  Volcanic Ashes







- Airport Elevation : 587 ft
- IATA code : XCR
- Download approach charts


LFOK - Chalons Vatry

CURRENT METAR :
  • 230000Z AUTO 25011KT 9999 SCT012 BKN021 BKN030 09/08 Q1021 TEMPO 3000 RA OVC007

EXPIRED METARs :
  • 222330Z AUTO 25010KT 8000 -RA SCT011/// BKN022/// BKN038/// ///TCU 09/09 Q1021 TEMPO 3000 RA OVC007
  • 222300Z AUTO 25011KT 9999 BKN011/// BKN022/// BKN036/// ///TCU 09/08 Q1021 BECMG OVC013
  • 222230Z AUTO 24012KT 9999 FEW010/// BKN015/// BKN023/// ///TCU 09/08 Q1021 BECMG OVC013
  • 222200Z AUTO 24011KT 9999 BKN014/// BKN022/// OVC056/// ///TCU 09/08 Q1021 TEMPO 4000 SHRA BECMG BKN040
  • 222130Z AUTO 25011KT 9999 BKN014 OVC052 09/08 Q1020 TEMPO 4000 SHRA SCT013 BKN030TCU

TAF TAF LFOK
Valid from the 23 at 00:00 until the 24 at 00:00 UTC


222300Z 2300/2324 24010KT 9999 BKN015
TEMPO 2300/2324 3000 RA OVC007
No reported NOTAMs for that airfield.
1 SIGMET reported for the Paris FIR (LFFF) :
 
Severe turbulence
LFFF SIGMET 6 VALID 222300/230300 LFPW
LFFF PARIS FIR/UIR SEV TURB FCST E OF LINE N5045 E00315 - N4745 E00445 FL220/320 MOV E 15KT NC=



MET'MAP, your aeronautical weather chart ! - Copyright ORBIFLY December 2007 - Disclaimer

ORBIFLY MET'MAP TEAM :

Programming & Development : Alexandra Zaïnal
Concept & Development : Baudouin d'Aumeries
Co-Development & Prog : Marc-Olivier Méhu
Technical & hardware support : Manuel Goepfert

Contact : metmap@orbifly.com




SOURCES & CREDITS :

   NOAA